Impacts TAF Board
For situational awareness. Not to be used for flight planning purposes.
IDs:

KGTR - Golden Triangle Arpt, MS, US

Issued at 0548 UTC 03 Jul 2022
Updated at 0607 UTC 03 Jul 2022
Potential Impact None Slight Moderate High
Time0556Z 03/07Z 03/08Z 03/09Z 03/10Z 03/11Z 03/12Z 03/13Z 03/14Z 03/15Z 03/16Z 03/17Z 03/18Z 03/19Z>>
Type OBS PRVL PRVL PRVL PRVL PRVL PRVL PRVL PRVL PRVL PRVL PRVL PRVL
  [PRB30]  
PRVL
  [PRB30]  
VIS 10 >6 >6 >6 >6 >6 >6 >6 >6 >6 >6 >6 >6
  [2]  
>6
  [2]  
CIG -- 250 250 250 250 250 250 250 60 60 60 60 60
  [40]  
60
  [40]  
Cover CLR BKN BKN BKN BKN BKN BKN BKN BKN BKN BKN BKN BKN
  [BKN]  
BKN
  [BKN]  
FltCat VFR VFR VFR VFR VFR VFR VFR VFR VFR VFR VFR VFR VFR
  [IFR]  
VFR
  [IFR]  
WX -- -- -- -- -- -- -- -- -- -- -- VCSH VCSH
  [+TSRA]  
VCSH
  [+TSRA]  
WDir VRB VRB VRB VRB VRB VRB VRB VRB 240 240 240 240 240
[240]
240
[240]
WSpd 0 0 0 0 0 0 0 0 3 3 3 5 5
  [5]  
5
  [5]  
WGst -- -- -- -- -- -- -- -- -- -- -- -- --
  [--]  
--
  [--]  
WSHgt -- -- -- -- -- -- -- -- -- -- -- -- --
[--]
--
[--]
WSDir -- -- -- -- -- -- -- -- -- -- -- -- --
[--]
--
[--]
WSSpd -- -- -- -- -- -- -- -- -- -- -- -- --
[--]
--
[--]
Raw TAF
KGTR 030548Z 0306/0406 00000KT P6SM BKN250
  FM031400 24003KT P6SM BKN060
  FM031700 24005KT P6SM VCSH BKN060
  PROB30 0318/0321 2SM +TSRA BKN040CB
  FM040100 00000KT P6SM BKN100


Raw METAR
KGTR 030556Z AUTO 00000KT 10SM CLR 23/23 A3004 RMK AO2 SLP176 60002 T02280228 10294 20228 403330211 50008
KGTR 030456Z AUTO 00000KT 10SM CLR 23/23 A3004 RMK AO2 SLP176 P0001 T02330228
KGTR 030356Z AUTO 18005KT 10SM CLR 24/23 A3002 RMK AO2 RAE29 SLP171 P0001 T02390228

METAR Board
Radar Display
Forecast Discussion
For situational awareness. Not to be used for flight planning purposes.